sensor_id;sensor_type;location;lat;lon;timestamp;P1;durP1;ratioP1;P2;durP2;ratioP2
10122;SDS011;5101;49.038;8.710;2022-12-20T00:00:49;46.40;;;32.93;;
10122;SDS011;5101;49.038;8.710;2022-12-20T00:03:15;41.00;;;29.17;;
10122;SDS011;5101;49.038;8.710;2022-12-20T00:05:41;40.53;;;29.13;;
10122;SDS011;5101;49.038;8.710;2022-12-20T00:08:07;43.63;;;30.73;;
10122;SDS011;5101;49.038;8.710;2022-12-20T00:10:34;41.90;;;28.83;;
10122;SDS011;5101;49.038;8.710;2022-12-20T00:13:00;43.37;;;28.87;;
10122;SDS011;5101;49.038;8.710;2022-12-20T00:15:26;36.67;;;26.83;;
10122;SDS011;5101;49.038;8.710;2022-12-20T00:17:51;39.93;;;27.13;;
10122;SDS011;5101;49.038;8.710;2022-12-20T00:20:17;41.63;;;27.67;;
10122;SDS011;5101;49.038;8.710;2022-12-20T00:22:42;39.90;;;26.77;;
10122;SDS011;5101;49.038;8.710;2022-12-20T00:25:08;35.43;;;25.13;;
10122;SDS011;5101;49.038;8.710;2022-12-20T00:27:34;34.47;;;22.80;;
10122;SDS011;5101;49.038;8.710;2022-12-20T00:29:59;34.33;;;23.37;;
10122;SDS011;5101;49.038;8.710;2022-12-20T00:32:26;33.37;;;22.37;;
10122;SDS011;5101;49.038;8.710;2022-12-20T00:34:51;36.20;;;25.37;;
10122;SDS011;5101;49.038;8.710;2022-12-20T00:37:17;24.80;;;18.70;;
10122;SDS011;5101;49.038;8.710;2022-12-20T00:39:42;26.67;;;19.73;;
10122;SDS011;5101;49.038;8.710;2022-12-20T00:42:08;24.87;;;18.77;;
10122;SDS011;5101;49.038;8.710;2022-12-20T00:44:34;28.27;;;20.23;;
10122;SDS011;5101;49.038;8.710;2022-12-20T00:47:00;30.40;;;20.47;;
10122;SDS011;5101;49.038;8.710;2022-12-20T00:49:25;30.60;;;20.23;;
10122;SDS011;5101;49.038;8.710;2022-12-20T00:51:51;25.63;;;17.47;;
10122;SDS011;5101;49.038;8.710;2022-12-20T00:54:16;23.60;;;15.80;;
10122;SDS011;5101;49.038;8.710;2022-12-20T00:56:42;23.10;;;17.13;;
10122;SDS011;5101;49.038;8.710;2022-12-20T00:59:07;23.03;;;15.97;;
10122;SDS011;5101;49.038;8.710;2022-12-20T01:01:33;23.10;;;16.97;;
10122;SDS011;5101;49.038;8.710;2022-12-20T01:03:58;20.93;;;15.80;;
10122;SDS011;5101;49.038;8.710;2022-12-20T01:06:28;19.13;;;13.33;;
10122;SDS011;5101;49.038;8.710;2022-12-20T01:08:54;19.50;;;14.13;;
10122;SDS011;5101;49.038;8.710;2022-12-20T01:11:22;24.83;;;14.87;;
10122;SDS011;5101;49.038;8.710;2022-12-20T01:13:50;20.43;;;14.00;;
10122;SDS011;5101;49.038;8.710;2022-12-20T01:16:22;19.30;;;13.97;;
10122;SDS011;5101;49.038;8.710;2022-12-20T01:18:49;16.50;;;12.70;;
10122;SDS011;5101;49.038;8.710;2022-12-20T01:21:16;17.43;;;12.37;;
10122;SDS011;5101;49.038;8.710;2022-12-20T01:23:43;17.67;;;13.30;;
10122;SDS011;5101;49.038;8.710;2022-12-20T01:26:10;18.27;;;13.13;;
10122;SDS011;5101;49.038;8.710;2022-12-20T01:28:39;16.87;;;13.13;;
10122;SDS011;5101;49.038;8.710;2022-12-20T01:31:07;16.93;;;13.50;;
10122;SDS011;5101;49.038;8.710;2022-12-20T01:33:34;17.03;;;13.87;;
10122;SDS011;5101;49.038;8.710;2022-12-20T01:36:01;20.20;;;13.70;;
10122;SDS011;5101;49.038;8.710;2022-12-20T01:38:29;18.23;;;13.73;;
10122;SDS011;5101;49.038;8.710;2022-12-20T01:40:56;19.90;;;14.23;;
10122;SDS011;5101;49.038;8.710;2022-12-20T01:43:22;18.90;;;13.83;;
10122;SDS011;5101;49.038;8.710;2022-12-20T01:45:49;19.40;;;13.70;;
10122;SDS011;5101;49.038;8.710;2022-12-20T01:48:17;19.23;;;13.53;;
10122;SDS011;5101;49.038;8.710;2022-12-20T01:50:46;15.23;;;12.53;;
10122;SDS011;5101;49.038;8.710;2022-12-20T01:53:13;17.67;;;11.63;;
10122;SDS011;5101;49.038;8.710;2022-12-20T01:55:40;16.47;;;11.90;;
10122;SDS011;5101;49.038;8.710;2022-12-20T01:58:09;14.67;;;11.30;;
10122;SDS011;5101;49.038;8.710;2022-12-20T02:00:38;14.33;;;11.20;;
10122;SDS011;5101;49.038;8.710;2022-12-20T02:03:04;16.87;;;11.57;;
10122;SDS011;5101;49.038;8.710;2022-12-20T02:05:33;12.33;;;10.40;;
10122;SDS011;5101;49.038;8.710;2022-12-20T02:08:00;13.57;;;10.70;;
10122;SDS011;5101;49.038;8.710;2022-12-20T02:10:28;13.33;;;10.87;;
10122;SDS011;5101;49.038;8.710;2022-12-20T02:16:06;13.83;;;10.33;;
10122;SDS011;5101;49.038;8.710;2022-12-20T02:18:40;14.07;;;9.97;;
10122;SDS011;5101;49.038;8.710;2022-12-20T02:21:18;12.03;;;10.13;;
10122;SDS011;5101;49.038;8.710;2022-12-20T02:26:51;11.03;;;9.27;;
10122;SDS011;5101;49.038;8.710;2022-12-20T02:32:46;12.80;;;9.70;;
10122;SDS011;5101;49.038;8.710;2022-12-20T02:35:14;13.30;;;9.97;;
10122;SDS011;5101;49.038;8.710;2022-12-20T02:37:46;12.43;;;9.50;;
10122;SDS011;5101;49.038;8.710;2022-12-20T02:40:13;12.10;;;9.33;;
10122;SDS011;5101;49.038;8.710;2022-12-20T02:42:41;10.20;;;9.03;;
10122;SDS011;5101;49.038;8.710;2022-12-20T02:45:08;11.90;;;9.33;;
10122;SDS011;5101;49.038;8.710;2022-12-20T02:47:58;10.87;;;9.07;;
10122;SDS011;5101;49.038;8.710;2022-12-20T02:50:29;10.37;;;8.80;;
10122;SDS011;5101;49.038;8.710;2022-12-20T02:52:59;13.07;;;8.87;;
10122;SDS011;5101;49.038;8.710;2022-12-20T02:55:37;10.30;;;8.70;;
10122;SDS011;5101;49.038;8.710;2022-12-20T02:58:12;9.73;;;8.57;;
10122;SDS011;5101;49.038;8.710;2022-12-20T03:00:47;11.57;;;8.97;;
10122;SDS011;5101;49.038;8.710;2022-12-20T03:03:14;12.73;;;9.60;;
10122;SDS011;5101;49.038;8.710;2022-12-20T03:05:46;11.33;;;9.43;;
10122;SDS011;5101;49.038;8.710;2022-12-20T03:08:14;10.60;;;8.83;;
10122;SDS011;5101;49.038;8.710;2022-12-20T03:10:39;11.37;;;8.83;;
10122;SDS011;5101;49.038;8.710;2022-12-20T03:13:05;9.30;;;8.07;;
10122;SDS011;5101;49.038;8.710;2022-12-20T03:15:31;15.03;;;8.90;;
10122;SDS011;5101;49.038;8.710;2022-12-20T03:17:56;10.97;;;8.80;;
10122;SDS011;5101;49.038;8.710;2022-12-20T03:20:23;10.13;;;8.53;;
10122;SDS011;5101;49.038;8.710;2022-12-20T03:22:49;13.83;;;9.97;;
10122;SDS011;5101;49.038;8.710;2022-12-20T03:25:14;13.07;;;9.17;;
10122;SDS011;5101;49.038;8.710;2022-12-20T03:27:40;13.57;;;10.43;;
10122;SDS011;5101;49.038;8.710;2022-12-20T03:30:05;14.53;;;10.37;;
10122;SDS011;5101;49.038;8.710;2022-12-20T03:32:31;11.47;;;9.07;;
10122;SDS011;5101;49.038;8.710;2022-12-20T03:34:57;11.93;;;10.20;;
10122;SDS011;5101;49.038;8.710;2022-12-20T03:37:22;11.00;;;9.10;;
10122;SDS011;5101;49.038;8.710;2022-12-20T03:39:48;11.63;;;9.10;;
10122;SDS011;5101;49.038;8.710;2022-12-20T03:42:13;11.77;;;9.10;;
10122;SDS011;5101;49.038;8.710;2022-12-20T03:44:40;11.47;;;9.43;;
10122;SDS011;5101;49.038;8.710;2022-12-20T03:47:05;10.53;;;8.77;;
10122;SDS011;5101;49.038;8.710;2022-12-20T03:49:31;10.33;;;8.50;;
10122;SDS011;5101;49.038;8.710;2022-12-20T03:51:56;12.00;;;8.60;;
10122;SDS011;5101;49.038;8.710;2022-12-20T03:54:22;10.27;;;8.17;;
10122;SDS011;5101;49.038;8.710;2022-12-20T03:56:47;11.30;;;8.43;;
10122;SDS011;5101;49.038;8.710;2022-12-20T03:59:13;10.67;;;8.43;;
10122;SDS011;5101;49.038;8.710;2022-12-20T04:01:38;11.40;;;8.53;;
10122;SDS011;5101;49.038;8.710;2022-12-20T04:04:04;12.03;;;8.17;;
10122;SDS011;5101;49.038;8.710;2022-12-20T04:06:29;11.33;;;8.53;;
10122;SDS011;5101;49.038;8.710;2022-12-20T04:08:55;9.83;;;7.90;;
10122;SDS011;5101;49.038;8.710;2022-12-20T04:11:21;10.07;;;7.13;;
10122;SDS011;5101;49.038;8.710;2022-12-20T04:13:47;9.90;;;7.37;;
10122;SDS011;5101;49.038;8.710;2022-12-20T04:16:15;9.90;;;7.47;;
10122;SDS011;5101;49.038;8.710;2022-12-20T04:18:42;9.23;;;7.10;;
10122;SDS011;5101;49.038;8.710;2022-12-20T04:21:08;10.83;;;7.57;;
10122;SDS011;5101;49.038;8.710;2022-12-20T04:23:36;11.93;;;8.00;;
10122;SDS011;5101;49.038;8.710;2022-12-20T04:26:03;9.00;;;7.87;;
10122;SDS011;5101;49.038;8.710;2022-12-20T04:28:30;10.90;;;8.30;;
10122;SDS011;5101;49.038;8.710;2022-12-20T04:30:56;11.27;;;8.63;;
10122;SDS011;5101;49.038;8.710;2022-12-20T04:33:22;9.97;;;8.13;;
10122;SDS011;5101;49.038;8.710;2022-12-20T04:35:49;11.40;;;7.97;;
10122;SDS011;5101;49.038;8.710;2022-12-20T04:38:16;10.63;;;8.23;;
10122;SDS011;5101;49.038;8.710;2022-12-20T04:40:42;9.73;;;7.63;;
10122;SDS011;5101;49.038;8.710;2022-12-20T04:43:08;10.90;;;8.53;;
10122;SDS011;5101;49.038;8.710;2022-12-20T04:45:34;9.30;;;7.80;;
10122;SDS011;5101;49.038;8.710;2022-12-20T04:47:59;11.20;;;8.13;;
10122;SDS011;5101;49.038;8.710;2022-12-20T04:50:25;10.47;;;7.70;;
10122;SDS011;5101;49.038;8.710;2022-12-20T04:52:51;10.27;;;7.30;;
10122;SDS011;5101;49.038;8.710;2022-12-20T04:55:36;8.33;;;7.03;;
10122;SDS011;5101;49.038;8.710;2022-12-20T04:58:05;8.70;;;7.10;;
10122;SDS011;5101;49.038;8.710;2022-12-20T05:00:31;8.70;;;6.67;;
10122;SDS011;5101;49.038;8.710;2022-12-20T05:02:57;9.27;;;7.10;;
10122;SDS011;5101;49.038;8.710;2022-12-20T05:05:23;11.63;;;7.10;;
10122;SDS011;5101;49.038;8.710;2022-12-20T05:07:49;8.67;;;7.33;;
10122;SDS011;5101;49.038;8.710;2022-12-20T05:10:14;7.77;;;6.50;;
10122;SDS011;5101;49.038;8.710;2022-12-20T05:12:40;7.30;;;6.23;;
10122;SDS011;5101;49.038;8.710;2022-12-20T05:15:06;7.80;;;6.53;;
10122;SDS011;5101;49.038;8.710;2022-12-20T05:17:32;10.13;;;6.83;;
10122;SDS011;5101;49.038;8.710;2022-12-20T05:19:58;9.00;;;7.03;;
10122;SDS011;5101;49.038;8.710;2022-12-20T05:22:24;8.27;;;6.53;;
10122;SDS011;5101;49.038;8.710;2022-12-20T05:25:11;6.97;;;6.27;;
10122;SDS011;5101;49.038;8.710;2022-12-20T05:27:56;9.53;;;6.83;;
10122;SDS011;5101;49.038;8.710;2022-12-20T05:30:22;7.70;;;6.20;;
10122;SDS011;5101;49.038;8.710;2022-12-20T05:32:48;8.70;;;6.47;;
10122;SDS011;5101;49.038;8.710;2022-12-20T05:35:14;8.77;;;6.80;;
10122;SDS011;5101;49.038;8.710;2022-12-20T05:37:39;8.47;;;6.77;;
10122;SDS011;5101;49.038;8.710;2022-12-20T05:40:05;8.90;;;6.60;;
10122;SDS011;5101;49.038;8.710;2022-12-20T05:42:31;6.30;;;5.70;;
10122;SDS011;5101;49.038;8.710;2022-12-20T05:44:57;6.57;;;5.50;;
10122;SDS011;5101;49.038;8.710;2022-12-20T05:47:22;7.57;;;5.70;;
10122;SDS011;5101;49.038;8.710;2022-12-20T05:49:48;7.00;;;5.90;;
10122;SDS011;5101;49.038;8.710;2022-12-20T05:52:14;7.57;;;6.00;;
10122;SDS011;5101;49.038;8.710;2022-12-20T05:54:39;8.03;;;6.10;;
10122;SDS011;5101;49.038;8.710;2022-12-20T05:57:05;9.63;;;5.90;;
10122;SDS011;5101;49.038;8.710;2022-12-20T05:59:30;8.00;;;6.23;;
10122;SDS011;5101;49.038;8.710;2022-12-20T06:01:56;6.07;;;5.47;;
10122;SDS011;5101;49.038;8.710;2022-12-20T06:04:21;6.77;;;5.73;;
10122;SDS011;5101;49.038;8.710;2022-12-20T06:06:47;7.93;;;6.07;;
10122;SDS011;5101;49.038;8.710;2022-12-20T06:09:12;6.17;;;5.57;;
10122;SDS011;5101;49.038;8.710;2022-12-20T06:11:38;10.63;;;7.27;;
10122;SDS011;5101;49.038;8.710;2022-12-20T06:14:03;12.17;;;7.70;;
10122;SDS011;5101;49.038;8.710;2022-12-20T06:16:29;7.83;;;6.37;;
10122;SDS011;5101;49.038;8.710;2022-12-20T06:18:55;9.53;;;7.70;;
10122;SDS011;5101;49.038;8.710;2022-12-20T06:21:21;10.87;;;7.30;;
10122;SDS011;5101;49.038;8.710;2022-12-20T06:23:46;11.60;;;7.57;;
10122;SDS011;5101;49.038;8.710;2022-12-20T06:26:12;9.43;;;7.13;;
10122;SDS011;5101;49.038;8.710;2022-12-20T06:28:38;9.80;;;7.13;;
10122;SDS011;5101;49.038;8.710;2022-12-20T06:31:10;9.23;;;7.00;;
10122;SDS011;5101;49.038;8.710;2022-12-20T06:33:35;8.50;;;6.27;;
10122;SDS011;5101;49.038;8.710;2022-12-20T06:36:02;10.33;;;7.30;;
10122;SDS011;5101;49.038;8.710;2022-12-20T06:38:27;8.03;;;6.70;;
10122;SDS011;5101;49.038;8.710;2022-12-20T06:40:53;11.87;;;7.67;;
10122;SDS011;5101;49.038;8.710;2022-12-20T06:43:18;8.40;;;6.63;;
10122;SDS011;5101;49.038;8.710;2022-12-20T06:45:44;9.13;;;7.00;;
10122;SDS011;5101;49.038;8.710;2022-12-20T06:48:10;7.97;;;6.77;;
10122;SDS011;5101;49.038;8.710;2022-12-20T06:50:36;9.57;;;6.87;;
10122;SDS011;5101;49.038;8.710;2022-12-20T06:53:02;8.83;;;6.60;;
10122;SDS011;5101;49.038;8.710;2022-12-20T06:55:28;10.10;;;6.63;;
10122;SDS011;5101;49.038;8.710;2022-12-20T06:57:53;9.87;;;6.93;;
10122;SDS011;5101;49.038;8.710;2022-12-20T07:00:20;9.73;;;6.50;;
10122;SDS011;5101;49.038;8.710;2022-12-20T07:02:46;10.83;;;7.87;;
10122;SDS011;5101;49.038;8.710;2022-12-20T07:05:12;9.97;;;7.77;;
10122;SDS011;5101;49.038;8.710;2022-12-20T07:07:37;10.03;;;7.87;;
10122;SDS011;5101;49.038;8.710;2022-12-20T07:10:03;9.27;;;7.60;;
10122;SDS011;5101;49.038;8.710;2022-12-20T07:12:29;12.77;;;8.43;;
10122;SDS011;5101;49.038;8.710;2022-12-20T07:14:54;8.60;;;7.63;;
10122;SDS011;5101;49.038;8.710;2022-12-20T07:17:20;8.67;;;7.77;;
10122;SDS011;5101;49.038;8.710;2022-12-20T07:19:45;11.83;;;8.87;;
10122;SDS011;5101;49.038;8.710;2022-12-20T07:22:11;12.93;;;9.83;;
10122;SDS011;5101;49.038;8.710;2022-12-20T07:24:36;11.33;;;8.83;;
10122;SDS011;5101;49.038;8.710;2022-12-20T07:27:03;12.47;;;9.10;;
10122;SDS011;5101;49.038;8.710;2022-12-20T07:29:28;12.13;;;9.33;;
10122;SDS011;5101;49.038;8.710;2022-12-20T07:31:54;21.93;;;14.40;;
10122;SDS011;5101;49.038;8.710;2022-12-20T07:34:19;15.90;;;11.57;;
10122;SDS011;5101;49.038;8.710;2022-12-20T07:36:45;18.73;;;13.33;;
10122;SDS011;5101;49.038;8.710;2022-12-20T07:39:11;19.00;;;13.13;;
10122;SDS011;5101;49.038;8.710;2022-12-20T07:41:36;11.00;;;8.43;;
10122;SDS011;5101;49.038;8.710;2022-12-20T07:44:02;10.67;;;8.57;;
10122;SDS011;5101;49.038;8.710;2022-12-20T07:46:28;10.20;;;8.20;;
10122;SDS011;5101;49.038;8.710;2022-12-20T07:48:53;10.80;;;8.47;;
10122;SDS011;5101;49.038;8.710;2022-12-20T07:51:20;9.63;;;7.90;;
10122;SDS011;5101;49.038;8.710;2022-12-20T07:53:51;8.13;;;7.27;;
10122;SDS011;5101;49.038;8.710;2022-12-20T07:56:20;8.43;;;6.77;;
10122;SDS011;5101;49.038;8.710;2022-12-20T07:58:46;8.43;;;6.80;;
10122;SDS011;5101;49.038;8.710;2022-12-20T08:01:14;8.73;;;7.57;;
10122;SDS011;5101;49.038;8.710;2022-12-20T08:03:45;7.60;;;6.70;;
10122;SDS011;5101;49.038;8.710;2022-12-20T08:06:13;9.47;;;7.37;;
10122;SDS011;5101;49.038;8.710;2022-12-20T08:08:41;9.73;;;7.53;;
10122;SDS011;5101;49.038;8.710;2022-12-20T08:11:15;12.20;;;8.77;;
10122;SDS011;5101;49.038;8.710;2022-12-20T08:13:42;12.30;;;8.10;;
10122;SDS011;5101;49.038;8.710;2022-12-20T08:16:07;11.37;;;7.80;;
10122;SDS011;5101;49.038;8.710;2022-12-20T08:18:33;9.00;;;7.73;;
10122;SDS011;5101;49.038;8.710;2022-12-20T08:20:59;10.93;;;8.50;;
10122;SDS011;5101;49.038;8.710;2022-12-20T08:23:25;10.63;;;8.07;;
10122;SDS011;5101;49.038;8.710;2022-12-20T08:25:50;10.50;;;8.37;;
10122;SDS011;5101;49.038;8.710;2022-12-20T08:28:16;11.00;;;9.20;;
10122;SDS011;5101;49.038;8.710;2022-12-20T08:30:41;11.07;;;8.33;;
10122;SDS011;5101;49.038;8.710;2022-12-20T08:33:07;11.87;;;8.87;;
10122;SDS011;5101;49.038;8.710;2022-12-20T08:35:32;12.47;;;7.90;;
10122;SDS011;5101;49.038;8.710;2022-12-20T08:37:58;8.90;;;8.00;;
10122;SDS011;5101;49.038;8.710;2022-12-20T08:40:23;13.80;;;9.93;;
10122;SDS011;5101;49.038;8.710;2022-12-20T08:42:49;15.03;;;10.83;;
10122;SDS011;5101;49.038;8.710;2022-12-20T08:45:14;12.43;;;10.20;;
10122;SDS011;5101;49.038;8.710;2022-12-20T08:47:40;19.17;;;11.90;;
10122;SDS011;5101;49.038;8.710;2022-12-20T08:50:06;15.13;;;10.43;;
10122;SDS011;5101;49.038;8.710;2022-12-20T08:52:32;15.57;;;11.97;;
10122;SDS011;5101;49.038;8.710;2022-12-20T08:54:57;14.57;;;13.07;;
10122;SDS011;5101;49.038;8.710;2022-12-20T08:57:23;15.10;;;11.90;;
10122;SDS011;5101;49.038;8.710;2022-12-20T08:59:48;12.73;;;10.63;;
10122;SDS011;5101;49.038;8.710;2022-12-20T09:02:14;12.47;;;10.20;;
10122;SDS011;5101;49.038;8.710;2022-12-20T09:04:39;12.87;;;10.50;;
10122;SDS011;5101;49.038;8.710;2022-12-20T09:07:05;14.20;;;11.37;;
10122;SDS011;5101;49.038;8.710;2022-12-20T09:09:30;18.60;;;13.67;;
10122;SDS011;5101;49.038;8.710;2022-12-20T09:11:56;15.80;;;13.10;;
10122;SDS011;5101;49.038;8.710;2022-12-20T09:14:22;13.97;;;11.77;;
10122;SDS011;5101;49.038;8.710;2022-12-20T09:16:48;15.87;;;11.67;;
10122;SDS011;5101;49.038;8.710;2022-12-20T09:19:13;14.57;;;10.90;;
10122;SDS011;5101;49.038;8.710;2022-12-20T09:21:39;17.30;;;11.33;;
10122;SDS011;5101;49.038;8.710;2022-12-20T09:24:05;15.87;;;13.23;;
10122;SDS011;5101;49.038;8.710;2022-12-20T09:26:31;15.38;;;10.55;;
10122;SDS011;5101;49.038;8.710;2022-12-20T09:28:59;16.07;;;11.60;;
10122;SDS011;5101;49.038;8.710;2022-12-20T09:31:25;14.77;;;11.70;;
10122;SDS011;5101;49.038;8.710;2022-12-20T09:33:55;12.88;;;11.00;;
10122;SDS011;5101;49.038;8.710;2022-12-20T09:36:22;13.73;;;11.27;;
10122;SDS011;5101;49.038;8.710;2022-12-20T09:38:48;15.07;;;10.77;;
10122;SDS011;5101;49.038;8.710;2022-12-20T09:41:23;13.43;;;10.07;;
10122;SDS011;5101;49.038;8.710;2022-12-20T09:43:57;14.07;;;8.90;;
10122;SDS011;5101;49.038;8.710;2022-12-20T09:46:28;11.52;;;8.20;;
10122;SDS011;5101;49.038;8.710;2022-12-20T09:48:54;13.38;;;8.02;;
10122;SDS011;5101;49.038;8.710;2022-12-20T09:54:15;9.40;;;7.28;;
10122;SDS011;5101;49.038;8.710;2022-12-20T09:57:05;7.97;;;6.53;;
10122;SDS011;5101;49.038;8.710;2022-12-20T09:59:46;11.85;;;7.90;;
10122;SDS011;5101;49.038;8.710;2022-12-20T10:02:13;11.32;;;7.88;;
10122;SDS011;5101;49.038;8.710;2022-12-20T10:04:44;10.15;;;7.68;;
10122;SDS011;5101;49.038;8.710;2022-12-20T10:09:56;9.18;;;7.10;;
10122;SDS011;5101;49.038;8.710;2022-12-20T10:15:39;9.73;;;6.78;;
10122;SDS011;5101;49.038;8.710;2022-12-20T10:20:48;7.90;;;5.72;;
10122;SDS011;5101;49.038;8.710;2022-12-20T10:26:09;8.80;;;6.72;;
10122;SDS011;5101;49.038;8.710;2022-12-20T10:28:36;9.13;;;6.68;;
10122;SDS011;5101;49.038;8.710;2022-12-20T10:31:05;8.43;;;5.60;;
10122;SDS011;5101;49.038;8.710;2022-12-20T10:33:35;6.45;;;5.38;;
10122;SDS011;5101;49.038;8.710;2022-12-20T10:36:20;7.80;;;6.13;;
10122;SDS011;5101;49.038;8.710;2022-12-20T10:38:49;10.25;;;6.18;;
10122;SDS011;5101;49.038;8.710;2022-12-20T10:41:18;7.68;;;5.85;;
10122;SDS011;5101;49.038;8.710;2022-12-20T10:43:53;9.20;;;5.57;;
10122;SDS011;5101;49.038;8.710;2022-12-20T10:46:32;12.05;;;8.95;;
10122;SDS011;5101;49.038;8.710;2022-12-20T10:49:25;11.88;;;8.57;;
10122;SDS011;5101;49.038;8.710;2022-12-20T10:51:56;12.73;;;9.30;;
10122;SDS011;5101;49.038;8.710;2022-12-20T10:54:29;12.02;;;8.95;;
10122;SDS011;5101;49.038;8.710;2022-12-20T10:57:00;11.73;;;8.15;;
10122;SDS011;5101;49.038;8.710;2022-12-20T10:59:49;13.40;;;9.40;;
10122;SDS011;5101;49.038;8.710;2022-12-20T11:02:25;13.00;;;9.20;;
10122;SDS011;5101;49.038;8.710;2022-12-20T11:07:50;8.70;;;7.15;;
10122;SDS011;5101;49.038;8.710;2022-12-20T11:10:25;10.20;;;7.75;;
10122;SDS011;5101;49.038;8.710;2022-12-20T11:12:54;10.15;;;8.65;;
10122;SDS011;5101;49.038;8.710;2022-12-20T11:15:31;9.50;;;8.05;;
10122;SDS011;5101;49.038;8.710;2022-12-20T11:18:00;11.35;;;8.52;;
10122;SDS011;5101;49.038;8.710;2022-12-20T11:20:43;11.48;;;8.35;;
10122;SDS011;5101;49.038;8.710;2022-12-20T11:26:20;12.05;;;8.10;;
10122;SDS011;5101;49.038;8.710;2022-12-20T11:31:58;10.73;;;8.18;;
10122;SDS011;5101;49.038;8.710;2022-12-20T11:37:35;13.38;;;9.73;;
10122;SDS011;5101;49.038;8.710;2022-12-20T11:39:49;10.20;;;8.98;;
10122;SDS011;5101;49.038;8.710;2022-12-20T11:50:27;10.73;;;8.27;;
10122;SDS011;5101;49.038;8.710;2022-12-20T11:53:03;9.90;;;7.80;;
10122;SDS011;5101;49.038;8.710;2022-12-20T11:55:34;9.15;;;7.75;;
10122;SDS011;5101;49.038;8.710;2022-12-20T11:58:05;8.50;;;7.63;;
10122;SDS011;5101;49.038;8.710;2022-12-20T12:00:40;11.60;;;7.53;;
10122;SDS011;5101;49.038;8.710;2022-12-20T12:03:11;10.70;;;8.48;;
10122;SDS011;5101;49.038;8.710;2022-12-20T12:05:51;8.10;;;7.28;;
10122;SDS011;5101;49.038;8.710;2022-12-20T12:08:21;11.23;;;7.57;;
10122;SDS011;5101;49.038;8.710;2022-12-20T12:11:00;9.73;;;7.65;;
10122;SDS011;5101;49.038;8.710;2022-12-20T12:13:34;10.25;;;6.97;;
10122;SDS011;5101;49.038;8.710;2022-12-20T12:16:10;7.75;;;6.90;;
10122;SDS011;5101;49.038;8.710;2022-12-20T12:19:00;11.30;;;8.80;;
10122;SDS011;5101;49.038;8.710;2022-12-20T12:21:48;15.05;;;12.57;;
10122;SDS011;5101;49.038;8.710;2022-12-20T12:24:18;15.05;;;12.02;;
10122;SDS011;5101;49.038;8.710;2022-12-20T12:26:51;13.40;;;11.10;;
10122;SDS011;5101;49.038;8.710;2022-12-20T12:29:18;12.13;;;10.30;;
10122;SDS011;5101;49.038;8.710;2022-12-20T12:31:47;9.77;;;7.50;;
10122;SDS011;5101;49.038;8.710;2022-12-20T12:37:04;7.85;;;5.50;;
10122;SDS011;5101;49.038;8.710;2022-12-20T12:45:50;11.00;;;6.15;;
10122;SDS011;5101;49.038;8.710;2022-12-20T12:48:21;6.63;;;5.47;;
10122;SDS011;5101;49.038;8.710;2022-12-20T12:50:52;8.00;;;5.18;;
10122;SDS011;5101;49.038;8.710;2022-12-20T12:53:22;8.52;;;5.38;;
10122;SDS011;5101;49.038;8.710;2022-12-20T13:11:52;7.88;;;5.95;;
10122;SDS011;5101;49.038;8.710;2022-12-20T13:16:45;15.00;;;9.23;;
10122;SDS011;5101;49.038;8.710;2022-12-20T13:19:12;15.52;;;9.05;;
10122;SDS011;5101;49.038;8.710;2022-12-20T13:21:44;12.48;;;7.80;;
10122;SDS011;5101;49.038;8.710;2022-12-20T13:27:00;7.72;;;6.22;;
10122;SDS011;5101;49.038;8.710;2022-12-20T13:29:33;10.43;;;6.68;;
10122;SDS011;5101;49.038;8.710;2022-12-20T13:32:00;7.78;;;5.70;;
10122;SDS011;5101;49.038;8.710;2022-12-20T13:34:37;7.65;;;5.95;;
10122;SDS011;5101;49.038;8.710;2022-12-20T13:37:27;7.05;;;4.65;;
10122;SDS011;5101;49.038;8.710;2022-12-20T13:40:35;7.82;;;5.15;;
10122;SDS011;5101;49.038;8.710;2022-12-20T13:43:25;8.93;;;5.25;;
10122;SDS011;5101;49.038;8.710;2022-12-20T13:49:02;12.73;;;8.57;;
10122;SDS011;5101;49.038;8.710;2022-12-20T13:51:32;19.13;;;12.95;;
10122;SDS011;5101;49.038;8.710;2022-12-20T13:54:02;11.45;;;8.00;;
10122;SDS011;5101;49.038;8.710;2022-12-20T13:56:32;13.00;;;10.02;;
10122;SDS011;5101;49.038;8.710;2022-12-20T13:59:04;20.75;;;12.38;;
10122;SDS011;5101;49.038;8.710;2022-12-20T14:01:37;18.38;;;11.98;;
10122;SDS011;5101;49.038;8.710;2022-12-20T14:04:16;20.67;;;12.90;;
10122;SDS011;5101;49.038;8.710;2022-12-20T14:06:42;17.48;;;10.38;;
10122;SDS011;5101;49.038;8.710;2022-12-20T14:12:13;12.68;;;8.57;;
10122;SDS011;5101;49.038;8.710;2022-12-20T14:14:45;8.68;;;6.05;;
10122;SDS011;5101;49.038;8.710;2022-12-20T14:20:00;12.50;;;7.20;;
10122;SDS011;5101;49.038;8.710;2022-12-20T14:23:07;9.70;;;7.38;;
10122;SDS011;5101;49.038;8.710;2022-12-20T14:25:37;9.00;;;7.45;;
10122;SDS011;5101;49.038;8.710;2022-12-20T14:28:17;15.88;;;8.40;;
10122;SDS011;5101;49.038;8.710;2022-12-20T14:30:54;10.93;;;7.82;;
10122;SDS011;5101;49.038;8.710;2022-12-20T14:33:22;9.32;;;6.53;;
10122;SDS011;5101;49.038;8.710;2022-12-20T14:35:53;8.85;;;7.00;;
10122;SDS011;5101;49.038;8.710;2022-12-20T14:38:22;10.45;;;6.20;;
10122;SDS011;5101;49.038;8.710;2022-12-20T14:40:52;10.88;;;7.28;;
10122;SDS011;5101;49.038;8.710;2022-12-20T14:43:28;5.25;;;4.75;;
10122;SDS011;5101;49.038;8.710;2022-12-20T14:48:43;5.95;;;4.55;;
10122;SDS011;5101;49.038;8.710;2022-12-20T14:51:09;5.93;;;3.58;;
10122;SDS011;5101;49.038;8.710;2022-12-20T14:53:36;5.43;;;3.55;;
10122;SDS011;5101;49.038;8.710;2022-12-20T14:56:03;6.07;;;4.35;;
10122;SDS011;5101;49.038;8.710;2022-12-20T14:58:30;5.85;;;4.60;;
10122;SDS011;5101;49.038;8.710;2022-12-20T15:00:59;10.32;;;7.22;;
10122;SDS011;5101;49.038;8.710;2022-12-20T15:03:26;9.63;;;5.95;;
10122;SDS011;5101;49.038;8.710;2022-12-20T15:05:53;6.15;;;4.13;;
10122;SDS011;5101;49.038;8.710;2022-12-20T15:10:56;6.50;;;3.72;;
10122;SDS011;5101;49.038;8.710;2022-12-20T15:13:33;8.73;;;3.95;;
10122;SDS011;5101;49.038;8.710;2022-12-20T15:16:03;3.78;;;3.05;;
10122;SDS011;5101;49.038;8.710;2022-12-20T15:18:39;5.60;;;5.05;;
10122;SDS011;5101;49.038;8.710;2022-12-20T15:21:26;11.43;;;6.57;;
10122;SDS011;5101;49.038;8.710;2022-12-20T15:23:54;3.80;;;3.40;;
10122;SDS011;5101;49.038;8.710;2022-12-20T15:26:22;5.15;;;4.30;;
10122;SDS011;5101;49.038;8.710;2022-12-20T15:28:50;6.80;;;4.88;;
10122;SDS011;5101;49.038;8.710;2022-12-20T15:31:16;7.47;;;5.93;;
10122;SDS011;5101;49.038;8.710;2022-12-20T15:33:44;9.68;;;6.10;;
10122;SDS011;5101;49.038;8.710;2022-12-20T15:36:21;8.65;;;6.25;;
10122;SDS011;5101;49.038;8.710;2022-12-20T15:38:50;8.48;;;5.32;;
10122;SDS011;5101;49.038;8.710;2022-12-20T15:41:23;7.68;;;5.45;;
10122;SDS011;5101;49.038;8.710;2022-12-20T15:43:55;8.20;;;6.47;;
10122;SDS011;5101;49.038;8.710;2022-12-20T15:46:23;6.97;;;5.95;;
10122;SDS011;5101;49.038;8.710;2022-12-20T15:48:49;8.52;;;6.43;;
10122;SDS011;5101;49.038;8.710;2022-12-20T15:51:34;7.50;;;6.53;;
10122;SDS011;5101;49.038;8.710;2022-12-20T15:54:02;8.35;;;6.93;;
10122;SDS011;5101;49.038;8.710;2022-12-20T15:56:29;8.38;;;6.90;;
10122;SDS011;5101;49.038;8.710;2022-12-20T15:58:55;10.10;;;6.85;;
10122;SDS011;5101;49.038;8.710;2022-12-20T16:01:25;8.48;;;6.20;;
10122;SDS011;5101;49.038;8.710;2022-12-20T16:03:52;8.13;;;6.18;;
10122;SDS011;5101;49.038;8.710;2022-12-20T16:06:18;12.88;;;7.75;;
10122;SDS011;5101;49.038;8.710;2022-12-20T16:08:44;9.77;;;8.23;;
10122;SDS011;5101;49.038;8.710;2022-12-20T16:11:22;12.30;;;8.82;;
10122;SDS011;5101;49.038;8.710;2022-12-20T16:13:51;9.85;;;7.43;;
10122;SDS011;5101;49.038;8.710;2022-12-20T16:16:19;12.00;;;7.03;;
10122;SDS011;5101;49.038;8.710;2022-12-20T16:18:46;7.13;;;6.40;;
10122;SDS011;5101;49.038;8.710;2022-12-20T16:21:24;10.40;;;7.50;;
10122;SDS011;5101;49.038;8.710;2022-12-20T16:23:52;8.27;;;6.57;;
10122;SDS011;5101;49.038;8.710;2022-12-20T16:26:19;10.85;;;7.15;;